Time;durP1;ratioP1;P1;durP2;ratioP2;P2;SDS_P1;SDS_P2;PMS_P1;PMS_P2;Temp;Humidity;BMP_temperature;BMP_pressure;BME280_temperature;BME280_humidity;BME280_pressure;Samples;Min_cycle;Max_cycle;Signal;HPM_P1;HPM_P2
2022/04/11 12:01:14;;;;;;;4.60;2.50;;;;;;100704.98;;;;103608;1311;598479;-30
2022/04/11 12:06:32;;;;;;;6.30;2.40;;;;;;100708.66;;;;106200;1287;62418;-31
2022/04/11 12:09:03;;;;;;;4.70;2.80;;;;;;100705.48;;;;106224;1287;61540;-28
2022/04/11 12:11:31;;;;;;;4.70;2.70;;;;;;100702.63;;;;106364;1287;62415;-30
2022/04/11 12:14:07;;;;;;;4.60;2.20;;;;;;100711.58;;;;106013;1284;263695;-30
2022/04/11 12:16:38;;;;;;;5.10;2.60;;;;;;100700.83;;;;106699;1284;62405;-31
2022/04/11 12:19:09;;;;;;;4.80;2.40;;;;;;100699.54;;;;106427;1284;62302;-32
2022/04/11 12:21:44;;;;;;;5.00;2.60;;;;;;100698.81;;;;106689;1284;62294;-32
2022/04/11 12:24:11;;;;;;;5.20;2.70;;;;;;100699.01;;;;106727;1283;64577;-30
2022/04/11 12:26:47;;;;;;;4.10;2.40;;;;;;100704.05;;;;106683;1284;63265;-32
2022/04/11 12:29:19;;;;;;;4.60;2.50;;;;;;100704.65;;;;106540;1284;63304;-32
2022/04/11 12:32:07;;;;;;;6.20;2.20;;;;;;100701.98;;;;106127;1286;63110;-30
2022/04/11 12:34:40;;;;;;;6.40;2.40;;;;;;100699.83;;;;106733;1284;63289;-31
2022/04/11 12:37:13;;;;;;;5.50;2.80;;;;;;100701.46;;;;106435;1284;64532;-32
2022/04/11 12:39:57;;;;;;;4.10;2.20;;;;;;100702.75;;;;106446;1282;61830;-32
2022/04/11 12:42:26;;;;;;;4.40;2.10;;;;;;100701.19;;;;106665;1283;63226;-33
2022/04/11 12:45:05;;;;;;;4.60;2.30;;;;;;100695.84;;;;106421;1284;63170;-32
2022/04/11 12:47:33;;;;;;;5.00;2.30;;;;;;100696.96;;;;106710;1283;63250;-31
2022/04/11 12:50:00;;;;;;;4.50;2.00;;;;;;100690.27;;;;106216;1284;63141;-30
2022/04/11 12:52:30;;;;;;;5.40;2.40;;;;;;100692.36;;;;106664;1284;63126;-30
2022/04/11 12:55:04;;;;;;;4.00;2.10;;;;;;100695.20;;;;106695;1282;63106;-32
2022/04/11 12:57:35;;;;;;;4.00;2.10;;;;;;100693.88;;;;106689;1284;63117;-32
2022/04/11 13:00:17;;;;;;;4.90;2.20;;;;;;100699.98;;;;106725;1284;63205;-31
2022/04/11 13:02:45;;;;;;;4.70;2.10;;;;;;100697.23;;;;106707;1284;65544;-32
2022/04/11 13:05:17;;;;;;;5.00;2.20;;;;;;100699.46;;;;106680;1284;63361;-31
2022/04/11 13:07:49;;;;;;;4.00;2.20;;;;;;100697.07;;;;106681;1284;63817;-31
2022/04/11 13:10:20;;;;;;;4.70;2.10;;;;;;100701.48;;;;106524;1283;63122;-31
2022/04/11 13:12:50;;;;;;;4.90;2.40;;;;;;100699.92;;;;106475;1284;63030;-32
2022/04/11 13:15:19;;;;;;;4.60;2.10;;;;;;100699.14;;;;106546;1284;64272;-30
2022/04/11 13:20:33;;;;;;;4.90;2.50;;;;;;100701.27;;;;106545;1284;63265;-30
2022/04/11 13:23:00;;;;;;;3.90;2.20;;;;;;100697.60;;;;106359;1284;63226;-31
2022/04/11 13:25:28;;;;;;;4.10;2.40;;;;;;100704.70;;;;106599;1283;63258;-30
2022/04/11 13:27:56;;;;;;;4.60;2.00;;;;;;100696.83;;;;106103;1285;64497;-30
2022/04/11 13:30:26;;;;;;;4.30;2.20;;;;;;100696.05;;;;106080;1285;63331;-32
2022/04/11 13:32:53;;;;;;;5.40;2.40;;;;;;100693.52;;;;106530;1281;63242;-33
2022/04/11 13:35:20;;;;;;;4.40;2.20;;;;;;100700.65;;;;106434;1284;63262;-29
2022/04/11 13:37:49;;;;;;;6.00;2.40;;;;;;100698.64;;;;106514;1284;63335;-30
2022/04/11 13:40:17;;;;;;;4.10;2.00;;;;;;100700.87;;;;106537;1283;64817;-30
2022/04/11 13:42:45;;;;;;;5.10;2.70;;;;;;100697.59;;;;106572;1284;63172;-30
2022/04/11 13:45:14;;;;;;;5.20;2.30;;;;;;100695.02;;;;106422;1284;63181;-31
2022/04/11 13:47:41;;;;;;;4.80;2.20;;;;;;100696.33;;;;106543;1284;63093;-32
2022/04/11 13:50:09;;;;;;;4.80;2.60;;;;;;100695.70;;;;106429;1284;63134;-32
2022/04/11 13:52:38;;;;;;;4.00;2.00;;;;;;100692.42;;;;106383;1286;64850;-32
2022/04/11 13:55:06;;;;;;;4.80;2.50;;;;;;100694.41;;;;106383;1284;63263;-28
2022/04/11 13:57:34;;;;;;;4.30;2.20;;;;;;100695.98;;;;106501;1284;63150;-29
2022/04/11 14:00:03;;;;;;;5.10;2.10;;;;;;100691.30;;;;106474;1283;63246;-31
2022/04/11 14:02:30;;;;;;;5.80;2.50;;;;;;100692.84;;;;106508;1283;63141;-34
2022/04/11 14:04:58;;;;;;;5.40;2.50;;;;;;100683.88;;;;106476;1283;64794;-31
2022/04/11 14:07:26;;;;;;;4.50;2.10;;;;;;100680.58;;;;106369;1286;63276;-30
2022/04/11 14:09:55;;;;;;;4.50;1.90;;;;;;100679.02;;;;106179;1285;63217;-38
2022/04/11 14:12:23;;;;;;;4.60;2.20;;;;;;100676.53;;;;106364;1283;63108;-38
2022/04/11 14:14:50;;;;;;;3.60;1.70;;;;;;100675.35;;;;106462;1284;63831;-33
2022/04/11 14:17:18;;;;;;;4.90;2.10;;;;;;100673.80;;;;106353;1286;63135;-35
2022/04/11 14:19:45;;;;;;;4.60;2.20;;;;;;100674.92;;;;106456;1283;63126;-33
2022/04/11 14:22:13;;;;;;;4.60;2.30;;;;;;100681.89;;;;106461;1284;63242;-34
2022/04/11 14:24:40;;;;;;;3.80;1.80;;;;;;100680.42;;;;106505;1283;63096;-29
2022/04/11 14:27:11;;;;;;;5.90;2.20;;;;;;100680.69;;;;106354;1284;62981;-31
2022/04/11 14:29:38;;;;;;;4.10;1.90;;;;;;100681.05;;;;106522;1283;63558;-30
2022/04/11 14:32:06;;;;;;;5.40;2.40;;;;;;100679.98;;;;106470;1283;63214;-30
2022/04/11 14:34:33;;;;;;;5.20;2.40;;;;;;100686.09;;;;106460;1283;63331;-32
2022/04/11 14:37:00;;;;;;;5.00;2.20;;;;;;100685.48;;;;106483;1283;63084;-32
2022/04/11 14:39:29;;;;;;;4.60;2.10;;;;;;100690.84;;;;106445;1284;63174;-32
2022/04/11 14:41:56;;;;;;;4.60;2.20;;;;;;100686.58;;;;106453;1283;63613;-32
2022/04/11 14:44:23;;;;;;;5.00;2.20;;;;;;100686.87;;;;106471;1283;63295;-29
2022/04/11 14:46:51;;;;;;;4.00;1.80;;;;;;100690.07;;;;106437;1284;63122;-29
2022/04/11 14:49:18;;;;;;;3.90;2.20;;;;;;100692.68;;;;106488;1283;63450;-33
2022/04/11 14:51:46;;;;;;;5.20;2.20;;;;;;100693.73;;;;106446;1284;63162;-38
2022/04/11 14:54:16;;;;;;;4.10;1.90;;;;;;100687.65;;;;106321;1283;65462;-32
2022/04/11 14:56:44;;;;;;;4.50;1.70;;;;;;100685.66;;;;106171;1284;63250;-37
2022/04/11 14:59:11;;;;;;;4.30;1.80;;;;;;100684.30;;;;107974;1283;61240;-32
2022/04/11 15:01:41;;;;;;;4.70;2.00;;;;;;100681.48;;;;107177;1283;63055;-31
2022/04/11 15:04:10;;;;;;;3.80;1.60;;;;;;100679.57;;;;107269;1284;63237;-31
2022/04/11 15:06:38;;;;;;;4.00;1.90;;;;;;100674.88;;;;106320;1284;64299;-28
2022/04/11 15:09:05;;;;;;;5.70;2.40;;;;;;100669.67;;;;106487;1283;63107;-33
2022/04/11 15:11:37;;;;;;;4.40;1.90;;;;;;100668.34;;;;106485;1284;64341;-31
2022/04/11 15:14:06;;;;;;;4.50;1.90;;;;;;100667.80;;;;106062;1284;63233;-28
2022/04/11 15:16:36;;;;;;;5.10;2.00;;;;;;100672.49;;;;106426;1284;63139;-33
2022/04/11 15:19:04;;;;;;;5.00;2.50;;;;;;100666.61;;;;106530;1283;64561;-30
2022/04/11 15:21:33;;;;;;;5.30;2.40;;;;;;100673.30;;;;106407;1284;63352;-36
2022/04/11 15:24:03;;;;;;;4.10;2.30;;;;;;100674.56;;;;106346;1284;63100;-28
2022/04/11 15:26:30;;;;;;;4.30;2.30;;;;;;100671.83;;;;106451;1284;63115;-29
2022/04/11 15:28:58;;;;;;;4.90;2.50;;;;;;100676.49;;;;106309;1286;63180;-27
2022/04/11 15:31:29;;;;;;;6.10;2.40;;;;;;100676.43;;;;106183;1284;63229;-26
2022/04/11 15:34:00;;;;;;;5.20;2.70;;;;;;100677.42;;;;106370;1284;63184;-27
2022/04/11 15:36:29;;;;;;;4.10;2.10;;;;;;100679.86;;;;106121;1284;63349;-30
2022/04/11 15:39:02;;;;;;;5.20;2.40;;;;;;100680.34;;;;105974;1285;63140;-31
2022/04/11 15:41:31;;;;;;;4.80;2.30;;;;;;100680.14;;;;106326;1286;63135;-31
2022/04/11 15:43:59;;;;;;;4.70;2.20;;;;;;100678.14;;;;105920;1285;63132;-30
2022/04/11 15:46:27;;;;;;;4.50;2.10;;;;;;100672.84;;;;106336;1286;63238;-32
2022/04/11 15:49:00;;;;;;;3.80;2.00;;;;;;100664.66;;;;106362;1286;63212;-30
2022/04/11 15:51:29;;;;;;;4.50;2.50;;;;;;100667.95;;;;106449;1284;63351;-28
2022/04/11 15:53:56;;;;;;;3.90;1.80;;;;;;100667.02;;;;106759;1281;63194;-28
2022/04/11 15:56:25;;;;;;;5.40;1.90;;;;;;100666.80;;;;106534;1283;64868;-29
2022/04/11 15:58:54;;;;;;;5.50;1.90;;;;;;100668.08;;;;106509;1284;63076;-34
2022/04/11 16:01:21;;;;;;;3.30;1.80;;;;;;100662.33;;;;106481;1285;63201;-30
2022/04/11 16:03:49;;;;;;;3.70;1.80;;;;;;100663.60;;;;106700;1282;64322;-32
2022/04/11 16:06:16;;;;;;;4.40;1.70;;;;;;100666.88;;;;106779;1282;63230;-33
2022/04/11 16:08:43;;;;;;;4.10;1.80;;;;;;100665.98;;;;106721;1282;65579;-29
2022/04/11 16:11:10;;;;;;;5.50;1.60;;;;;;100656.57;;;;106726;1282;64080;-29
2022/04/11 16:13:39;;;;;;;4.70;1.90;;;;;;100654.33;;;;106696;1282;64071;-28
2022/04/11 16:16:07;;;;;;;3.70;1.80;;;;;;100653.14;;;;106700;1283;64065;-29
2022/04/11 16:18:38;;;;;;;4.40;1.90;;;;;;100653.73;;;;106704;1282;63955;-31
2022/04/11 16:21:05;;;;;;;4.50;1.70;;;;;;100655.98;;;;106764;1281;65335;-33
2022/04/11 16:23:33;;;;;;;4.90;1.90;;;;;;100658.02;;;;106732;1282;63948;-34
2022/04/11 16:26:10;;;;;;;5.10;1.80;;;;;;100659.64;;;;106739;1282;64034;-31
2022/04/11 16:28:38;;;;;;;8.20;1.80;;;;;;100663.75;;;;106718;1283;64068;-34
2022/04/11 16:31:07;;;;;;;3.90;1.70;;;;;;100665.66;;;;106742;1282;64080;-33
2022/04/11 16:33:34;;;;;;;3.50;1.50;;;;;;100662.98;;;;106613;1284;65721;-30
2022/04/11 16:36:01;;;;;;;4.30;1.80;;;;;;100664.96;;;;106712;1282;63952;-30
2022/04/11 16:38:28;;;;;;;3.70;2.00;;;;;;100667.77;;;;106711;1282;63895;-33
2022/04/11 16:40:56;;;;;;;4.40;1.80;;;;;;100668.36;;;;106595;1285;63974;-37
2022/04/11 16:43:23;;;;;;;5.00;2.30;;;;;;100670.16;;;;106662;1283;64068;-32
2022/04/11 16:45:51;;;;;;;4.00;1.90;;;;;;100672.83;;;;106762;1282;65778;-34
2022/04/11 16:48:19;;;;;;;4.10;1.70;;;;;;100672.48;;;;106730;1282;64039;-31
2022/04/11 16:50:46;;;;;;;4.00;1.80;;;;;;100670.63;;;;106707;1282;63921;-36
2022/04/11 16:53:14;;;;;;;3.50;1.60;;;;;;100675.55;;;;106702;1282;64006;-36
2022/04/11 16:55:43;;;;;;;3.70;1.60;;;;;;100677.19;;;;106789;1281;64790;-35
2022/04/11 16:58:10;;;;;;;3.90;1.70;;;;;;100676.92;;;;106410;1284;66551;-36
2022/04/11 17:00:39;;;;;;;4.80;1.80;;;;;;100678.94;;;;106706;1282;63992;-35
2022/04/11 17:03:07;;;;;;;4.00;1.80;;;;;;100684.05;;;;106751;1282;63929;-36
2022/04/11 17:05:35;;;;;;;4.00;1.80;;;;;;100683.53;;;;106556;1284;63939;-35
2022/04/11 17:08:08;;;;;;;4.60;1.90;;;;;;100685.14;;;;106599;1282;64084;-35
2022/04/11 17:10:39;;;;;;;4.90;1.80;;;;;;100681.37;;;;106728;1282;64129;-29
2022/04/11 17:13:07;;;;;;;4.30;1.60;;;;;;100685.15;;;;106423;1284;64070;-29
2022/04/11 17:18:31;;;;;;;4.70;1.70;;;;;;100684.94;;;;106741;1282;64065;-35
2022/04/11 17:21:10;;;;;;;4.20;1.60;;;;;;100686.30;;;;106492;1283;64022;-29
2022/04/11 17:23:39;;;;;;;3.50;1.70;;;;;;100692.33;;;;106750;1282;66360;-42
2022/04/11 17:26:07;;;;;;;4.20;1.90;;;;;;100700.95;;;;106730;1282;64577;-36
2022/04/11 17:28:37;;;;;;;5.10;2.50;;;;;;100707.70;;;;106635;1284;64033;-30
2022/04/11 17:31:04;;;;;;;4.30;1.80;;;;;;100709.63;;;;106705;1282;64160;-28
2022/04/11 17:33:33;;;;;;;4.50;2.10;;;;;;100713.48;;;;106766;1282;64736;-34
2022/04/11 17:36:01;;;;;;;6.80;1.80;;;;;;100715.15;;;;106772;1282;64023;-29
2022/04/11 17:38:32;;;;;;;4.10;1.80;;;;;;100719.13;;;;106737;1282;64073;-35
2022/04/11 17:41:01;;;;;;;4.40;2.20;;;;;;100721.75;;;;106744;1282;63955;-35
2022/04/11 17:43:28;;;;;;;4.30;2.20;;;;;;100723.73;;;;106725;1282;64010;-29
2022/04/11 17:46:01;;;;;;;3.60;2.00;;;;;;100728.88;;;;106750;1282;63956;-34
2022/04/11 17:48:36;;;;;;;3.80;1.80;;;;;;100728.60;;;;106558;1285;65060;-34
2022/04/11 17:51:06;;;;;;;4.00;1.90;;;;;;100730.57;;;;106721;1282;63916;-36
2022/04/11 17:53:34;;;;;;;4.80;2.30;;;;;;100730.69;;;;106652;1284;63955;-35
2022/04/11 17:56:03;;;;;;;3.40;1.70;;;;;;100730.89;;;;106733;1281;64474;-35
2022/04/11 17:58:34;;;;;;;4.30;2.10;;;;;;100732.73;;;;106782;1282;65221;-29
2022/04/11 18:01:02;;;;;;;4.20;2.30;;;;;;100735.06;;;;106567;1283;66783;-29
2022/04/11 18:03:35;;;;;;;4.50;2.10;;;;;;100738.92;;;;106749;1282;64430;-34
2022/04/11 18:06:03;;;;;;;4.70;2.30;;;;;;100736.92;;;;106710;1282;63963;-36
2022/04/11 18:08:31;;;;;;;4.40;2.30;;;;;;100740.05;;;;106372;1284;64019;-30
2022/04/11 18:10:58;;;;;;;5.20;2.20;;;;;;100745.52;;;;106775;1282;64085;-31
2022/04/11 18:13:26;;;;;;;4.70;2.20;;;;;;100750.25;;;;106697;1282;65617;-35
2022/04/11 18:15:54;;;;;;;4.40;2.50;;;;;;100750.90;;;;106506;1283;63692;-29
2022/04/11 18:18:23;;;;;;;5.30;2.50;;;;;;100752.58;;;;106423;1285;63921;-29
2022/04/11 18:20:53;;;;;;;4.60;2.30;;;;;;100752.09;;;;106730;1283;63935;-28
2022/04/11 18:23:21;;;;;;;4.20;2.00;;;;;;100755.70;;;;106761;1282;64049;-33
2022/04/11 18:25:51;;;;;;;5.20;2.20;;;;;;100760.14;;;;106728;1282;64047;-36
2022/04/11 18:33:54;;;;;;;4.50;2.30;;;;;;100765.81;;;;106514;1282;64394;-30
2022/04/11 18:36:42;;;;;;;4.20;2.10;;;;;;100772.70;;;;106646;1284;64042;-31
2022/04/11 18:39:14;;;;;;;4.30;2.30;;;;;;100774.73;;;;106536;1283;63938;-30
2022/04/11 18:41:49;;;;;;;4.50;2.00;;;;;;100774.98;;;;106537;1283;64022;-30
2022/04/11 18:44:17;;;;;;;4.40;2.50;;;;;;100774.09;;;;106746;1282;64366;-36
2022/04/11 18:46:46;;;;;;;4.00;1.90;;;;;;100773.41;;;;106720;1282;63952;-36
2022/04/11 18:49:13;;;;;;;4.90;2.20;;;;;;100778.12;;;;106739;1282;64047;-36
2022/04/11 18:51:41;;;;;;;4.40;2.30;;;;;;100777.59;;;;106727;1282;64403;-35
2022/04/11 18:54:10;;;;;;;4.20;2.40;;;;;;100781.27;;;;106976;1277;64043;-41
2022/04/11 18:56:38;;;;;;;5.40;2.70;;;;;;100779.71;;;;106977;1280;64145;-34
2022/04/11 18:59:09;;;;;;;5.40;2.70;;;;;;100784.08;;;;106961;1279;64042;-29
2022/04/11 19:01:36;;;;;;;5.20;2.70;;;;;;100786.11;;;;106995;1278;64051;-30
2022/04/11 19:04:07;;;;;;;6.00;2.70;;;;;;100783.50;;;;107015;1277;65321;-30
2022/04/11 19:06:36;;;;;;;5.10;2.40;;;;;;100783.95;;;;106988;1277;64047;-29
2022/04/11 19:09:04;;;;;;;5.30;2.10;;;;;;100784.56;;;;106953;1278;63909;-36
2022/04/11 19:11:32;;;;;;;5.40;2.70;;;;;;100784.86;;;;106957;1279;64074;-37
2022/04/11 19:14:00;;;;;;;4.50;2.50;;;;;;100783.85;;;;107132;1276;64005;-30
2022/04/11 19:16:28;;;;;;;4.70;2.40;;;;;;100780.05;;;;107106;1276;65318;-29
2022/04/11 19:18:56;;;;;;;5.50;2.40;;;;;;100779.23;;;;107154;1277;64141;-31
2022/04/11 19:21:29;;;;;;;5.10;2.60;;;;;;100777.65;;;;107052;1276;64101;-31
2022/04/11 19:23:59;;;;;;;5.80;3.00;;;;;;100778.27;;;;106944;1276;63950;-30
2022/04/11 19:26:27;;;;;;;6.20;3.50;;;;;;100776.79;;;;107075;1276;62686;-32
2022/04/11 19:28:58;;;;;;;6.20;3.00;;;;;;100782.04;;;;107084;1276;65108;-33
2022/04/11 19:31:30;;;;;;;6.60;3.30;;;;;;100783.88;;;;107033;1276;63934;-32
2022/04/11 19:34:00;;;;;;;5.80;3.60;;;;;;100784.89;;;;107078;1274;64079;-33
2022/04/11 19:36:29;;;;;;;6.60;3.40;;;;;;100786.81;;;;107114;1277;64068;-34
2022/04/11 19:39:03;;;;;;;7.90;3.80;;;;;;100788.02;;;;107228;1274;64003;-31
2022/04/11 19:41:32;;;;;;;8.50;3.80;;;;;;100786.67;;;;107141;1274;65624;-32
2022/04/11 19:43:59;;;;;;;12.00;4.40;;;;;;100786.35;;;;107156;1274;64164;-31
2022/04/11 19:46:27;;;;;;;9.20;4.60;;;;;;100788.33;;;;107211;1273;64083;-32
2022/04/11 19:51:45;;;;;;;10.40;4.80;;;;;;100790.48;;;;107091;1277;64015;-32
2022/04/11 19:54:12;;;;;;;10.30;5.30;;;;;;100786.64;;;;107203;1274;64051;-35
2022/04/11 19:56:40;;;;;;;10.00;5.00;;;;;;100786.27;;;;107213;1274;63954;-34
2022/04/11 19:59:08;;;;;;;8.70;4.20;;;;;;100788.19;;;;107094;1274;64063;-33
2022/04/11 20:01:37;;;;;;;8.70;5.00;;;;;;100790.02;;;;107171;1274;64008;-29
2022/04/11 20:04:05;;;;;;;8.00;4.20;;;;;;100794.44;;;;107241;1274;64056;-29
2022/04/11 20:06:34;;;;;;;6.80;4.40;;;;;;100793.56;;;;107155;1275;66811;-30
2022/04/11 20:09:04;;;;;;;7.80;4.40;;;;;;100796.04;;;;107187;1274;64066;-31
2022/04/11 20:11:31;;;;;;;8.70;4.70;;;;;;100794.01;;;;107138;1274;65075;-29
2022/04/11 20:13:59;;;;;;;8.00;4.00;;;;;;100798.27;;;;106979;1275;349325;-31
2022/04/11 20:16:27;;;;;;;8.20;4.50;;;;;;100799.05;;;;107206;1274;64033;-31
2022/04/11 20:18:57;;;;;;;7.50;4.50;;;;;;100800.26;;;;107138;1274;64617;-34
2022/04/11 20:21:26;;;;;;;10.20;5.00;;;;;;100797.80;;;;107169;1274;64080;-37
2022/04/11 20:23:53;;;;;;;7.20;4.40;;;;;;100800.85;;;;107186;1274;64039;-37
2022/04/11 20:26:23;;;;;;;10.40;5.00;;;;;;100799.06;;;;107244;1273;64050;-34
2022/04/11 20:28:51;;;;;;;10.90;5.00;;;;;;100797.61;;;;107133;1273;63924;-28
2022/04/11 20:31:20;;;;;;;8.10;4.90;;;;;;100802.34;;;;107104;1273;65726;-29
2022/04/11 20:33:50;;;;;;;8.50;4.50;;;;;;100804.11;;;;107176;1273;64067;-31
2022/04/11 20:36:18;;;;;;;7.70;4.30;;;;;;100805.34;;;;107047;1277;63948;-28
2022/04/11 20:38:45;;;;;;;10.30;5.10;;;;;;100804.61;;;;107213;1274;64052;-29
2022/04/11 20:41:13;;;;;;;9.00;4.90;;;;;;100801.49;;;;107207;1273;64256;-29
2022/04/11 20:43:40;;;;;;;8.70;4.50;;;;;;100802.40;;;;107119;1274;65642;-30
2022/04/11 20:46:07;;;;;;;7.30;4.80;;;;;;100802.76;;;;107193;1274;63950;-31
2022/04/11 20:48:34;;;;;;;9.80;4.60;;;;;;100798.14;;;;107192;1273;64006;-32
2022/04/11 20:51:03;;;;;;;9.30;4.40;;;;;;100797.04;;;;107180;1273;64142;-32
2022/04/11 20:53:30;;;;;;;11.40;4.80;;;;;;100797.91;;;;107207;1273;64082;-32
2022/04/11 20:55:58;;;;;;;9.50;4.80;;;;;;100793.52;;;;107158;1277;65059;-32
2022/04/11 20:58:26;;;;;;;9.30;4.80;;;;;;100794.72;;;;107159;1274;63931;-30
2022/04/11 21:00:54;;;;;;;10.80;5.30;;;;;;100792.64;;;;107212;1274;63749;-30
2022/04/11 21:03:27;;;;;;;9.40;5.00;;;;;;100790.17;;;;107126;1274;64040;-28
2022/04/11 21:05:56;;;;;;;8.70;4.20;;;;;;100788.33;;;;107169;1275;63950;-29
2022/04/11 21:08:28;;;;;;;8.70;4.40;;;;;;100789.74;;;;107248;1274;65271;-36
2022/04/11 21:10:55;;;;;;;7.20;4.20;;;;;;100787.05;;;;107184;1274;63939;-32
2022/04/11 21:13:27;;;;;;;10.40;5.10;;;;;;100793.25;;;;107244;1274;64049;-29
2022/04/11 21:15:58;;;;;;;9.80;4.30;;;;;;100797.90;;;;107248;1274;64032;-28
2022/04/11 21:18:29;;;;;;;8.60;4.40;;;;;;100795.64;;;;107177;1274;63752;-40
2022/04/11 21:20:56;;;;;;;8.80;4.60;;;;;;100798.08;;;;107257;1274;67013;-34
2022/04/11 21:23:24;;;;;;;10.70;4.30;;;;;;100797.27;;;;107163;1275;64073;-29
2022/04/11 21:25:51;;;;;;;8.40;4.40;;;;;;100804.52;;;;107234;1274;64027;-29
2022/04/11 21:28:22;;;;;;;8.20;4.70;;;;;;100804.05;;;;107208;1274;64075;-37
2022/04/11 21:30:49;;;;;;;9.20;4.50;;;;;;100804.37;;;;107277;1274;63873;-32
2022/04/11 21:33:23;;;;;;;9.70;4.40;;;;;;100807.09;;;;107256;1274;65327;-31
2022/04/11 21:35:54;;;;;;;9.60;4.70;;;;;;100805.19;;;;107257;1274;64034;-33
2022/04/11 21:38:25;;;;;;;8.80;5.00;;;;;;100805.75;;;;107266;1274;64164;-32
2022/04/11 21:40:53;;;;;;;12.10;5.20;;;;;;100804.48;;;;107265;1273;63962;-33
2022/04/11 21:43:24;;;;;;;9.40;4.50;;;;;;100808.05;;;;107185;1274;64139;-29
2022/04/11 21:45:54;;;;;;;8.20;4.50;;;;;;100809.48;;;;107164;1274;65296;-30
2022/04/11 21:48:24;;;;;;;8.60;4.30;;;;;;100809.95;;;;107239;1274;64033;-31
2022/04/11 21:50:53;;;;;;;10.50;4.90;;;;;;100810.08;;;;107250;1274;63943;-33
2022/04/11 21:53:20;;;;;;;8.70;4.90;;;;;;100810.20;;;;107150;1274;63912;-29
2022/04/11 21:55:50;;;;;;;8.60;4.40;;;;;;100813.34;;;;107278;1274;64051;-32
2022/04/11 21:58:21;;;;;;;8.70;4.40;;;;;;100818.63;;;;107272;1274;64882;-38
2022/04/11 22:00:55;;;;;;;10.80;4.50;;;;;;100826.34;;;;107225;1274;64088;-33
2022/04/11 22:03:23;;;;;;;8.40;4.20;;;;;;100826.94;;;;107212;1273;63976;-30
2022/04/11 22:05:51;;;;;;;7.00;4.10;;;;;;100823.76;;;;107250;1274;64700;-29
2022/04/11 22:08:25;;;;;;;9.20;4.80;;;;;;100821.41;;;;107290;1274;64061;-30
2022/04/11 22:10:55;;;;;;;11.10;5.30;;;;;;100821.85;;;;107233;1274;65274;-33
2022/04/11 22:13:26;;;;;;;8.20;4.30;;;;;;100821.33;;;;107230;1274;63941;-29
2022/04/11 22:15:53;;;;;;;8.70;4.60;;;;;;100818.11;;;;107271;1274;64043;-34
2022/04/11 22:18:24;;;;;;;8.80;4.90;;;;;;100821.99;;;;107248;1275;64260;-33
2022/04/11 22:20:51;;;;;;;10.20;5.10;;;;;;100818.52;;;;107165;1274;64012;-37
2022/04/11 22:23:25;;;;;;;8.20;4.60;;;;;;100818.29;;;;107248;1274;64973;-30
2022/04/11 22:25:52;;;;;;;10.00;5.20;;;;;;100817.52;;;;107163;1274;64008;-29
2022/04/11 22:28:22;;;;;;;8.90;4.60;;;;;;100815.63;;;;107239;1274;64961;-29
2022/04/11 22:30:52;;;;;;;9.30;4.90;;;;;;100814.71;;;;107241;1274;63973;-35
2022/04/11 22:33:23;;;;;;;9.20;6.10;;;;;;100814.23;;;;107299;1274;64122;-31
2022/04/11 22:35:53;;;;;;;8.80;4.50;;;;;;100815.30;;;;107271;1274;64064;-29
2022/04/11 22:38:24;;;;;;;9.60;5.10;;;;;;100815.67;;;;107245;1275;64027;-32
2022/04/11 22:40:52;;;;;;;9.50;5.30;;;;;;100815.47;;;;107251;1274;64043;-34
2022/04/11 22:43:20;;;;;;;8.10;4.80;;;;;;100818.05;;;;107272;1274;64065;-49
2022/04/11 22:45:47;;;;;;;8.90;5.30;;;;;;100816.61;;;;107278;1275;63902;-34
2022/04/11 22:48:14;;;;;;;8.90;4.80;;;;;;100818.21;;;;107271;1274;66523;-38
2022/04/11 22:50:42;;;;;;;8.20;5.20;;;;;;100817.76;;;;107251;1274;63925;-34
2022/04/11 22:53:12;;;;;;;8.60;5.10;;;;;;100818.59;;;;107242;1274;64158;-33
2022/04/11 22:55:39;;;;;;;8.90;5.00;;;;;;100817.36;;;;107239;1274;63940;-33
2022/04/11 22:58:08;;;;;;;7.80;5.00;;;;;;100820.35;;;;107134;1274;63917;-33
2022/04/11 23:00:35;;;;;;;9.20;5.70;;;;;;100817.47;;;;107286;1275;65313;-29
2022/04/11 23:03:02;;;;;;;8.60;4.80;;;;;;100819.62;;;;107271;1274;63939;-29
2022/04/11 23:05:30;;;;;;;8.70;5.20;;;;;;100819.55;;;;107228;1274;63910;-33
2022/04/11 23:07:57;;;;;;;10.90;5.50;;;;;;100813.38;;;;107255;1274;63944;-33
2022/04/11 23:10:26;;;;;;;8.30;5.20;;;;;;100816.98;;;;107260;1274;64083;-32
2022/04/11 23:13:01;;;;;;;9.80;5.70;;;;;;100813.77;;;;107272;1274;65912;-29
2022/04/11 23:15:29;;;;;;;8.40;4.90;;;;;;100812.15;;;;107137;1274;64057;-33
2022/04/11 23:17:56;;;;;;;10.60;5.50;;;;;;100812.69;;;;107242;1274;64010;-33
2022/04/11 23:20:26;;;;;;;7.60;5.20;;;;;;100814.73;;;;107247;1272;64066;-29
2022/04/11 23:22:53;;;;;;;9.30;5.20;;;;;;100814.84;;;;107245;1274;63959;-30
2022/04/11 23:25:21;;;;;;;9.20;5.50;;;;;;100817.19;;;;107262;1274;65695;-29
2022/04/11 23:27:51;;;;;;;8.70;5.60;;;;;;100819.59;;;;107139;1275;64023;-29
2022/04/11 23:30:20;;;;;;;9.80;5.50;;;;;;100821.59;;;;107282;1274;63922;-34
2022/04/11 23:32:50;;;;;;;11.50;6.10;;;;;;100821.30;;;;107249;1274;64062;-33
2022/04/11 23:35:17;;;;;;;8.80;5.30;;;;;;100823.84;;;;107247;1274;63921;-29
2022/04/11 23:37:48;;;;;;;10.20;5.80;;;;;;100823.77;;;;107240;1273;65594;-29
2022/04/11 23:43:01;;;;;;;9.00;5.50;;;;;;100824.48;;;;107250;1274;64969;-34
2022/04/11 23:45:30;;;;;;;8.50;5.50;;;;;;100824.31;;;;107221;1274;64168;-31
2022/04/11 23:47:57;;;;;;;9.70;5.90;;;;;;100823.48;;;;107267;1274;63938;-33
2022/04/11 23:50:27;;;;;;;10.20;5.80;;;;;;100824.63;;;;107278;1274;65013;-29
2022/04/11 23:52:54;;;;;;;8.90;5.40;;;;;;100828.08;;;;107227;1274;64007;-36
2022/04/11 23:55:24;;;;;;;8.40;4.90;;;;;;100827.86;;;;107247;1274;63964;-29
2022/04/11 23:57:52;;;;;;;9.70;5.80;;;;;;100828.45;;;;107236;1274;63921;-28
